Time;durP1;ratioP1;P1;durP2;ratioP2;P2;SDS_P1;SDS_P2;PMS_P1;PMS_P2;Temp;Humidity;BMP_temperature;BMP_pressure;BME280_temperature;BME280_humidity;BME280_pressure;Samples;Min_cycle;Max_cycle;Signal;HPM_P1;HPM_P2
2023/06/05 00:00:46;;;;;;;2.00;1.30;;;12.80;99.90;;;;;;5078233;28;20184;-79
2023/06/05 00:03:12;;;;;;;2.00;1.27;;;12.80;99.90;;;;;;5078622;28;20266;-79
2023/06/05 00:05:37;;;;;;;3.37;1.93;;;12.80;1.00;;;;;;5078769;28;20180;-79
2023/06/05 00:08:03;;;;;;;1.63;1.43;;;12.70;1.00;;;;;;5078412;28;20265;-79
2023/06/05 00:10:28;;;;;;;1.50;1.30;;;12.60;1.00;;;;;;5096393;28;20186;-79
2023/06/05 00:12:54;;;;;;;1.37;1.20;;;12.60;1.00;;;;;;5096110;28;20705;-79
2023/06/05 00:15:20;;;;;;;2.73;1.43;;;12.60;1.00;;;;;;5096222;28;20179;-79
2023/06/05 00:17:47;;;;;;;1.60;1.30;;;12.50;1.00;;;;;;5096042;28;20200;-79
2023/06/05 00:20:12;;;;;;;2.10;1.50;;;12.50;1.00;;;;;;5078083;28;20184;-79
2023/06/05 00:22:44;;;;;;;1.40;1.30;;;12.40;1.00;;;;;;5095705;28;20187;-79
2023/06/05 00:25:10;;;;;;;2.00;1.30;;;12.20;1.00;;;;;;5077635;28;20175;-79
2023/06/05 00:27:35;;;;;;;2.33;1.50;;;12.20;1.00;;;;;;5077469;28;20204;-79
2023/06/05 00:30:01;;;;;;;1.50;1.30;;;12.30;1.00;;;;;;5077583;28;20172;-79
2023/06/05 00:32:27;;;;;;;1.73;1.30;;;12.40;1.00;;;;;;5077492;28;20171;-79
2023/06/05 00:34:52;;;;;;;1.97;1.60;;;12.40;1.00;;;;;;5095074;28;20176;-79
2023/06/05 00:37:19;;;;;;;2.50;1.30;;;12.20;1.00;;;;;;5077585;28;20283;-79
2023/06/05 00:39:45;;;;;;;1.73;1.37;;;12.20;1.00;;;;;;5095246;28;20184;-78
2023/06/05 00:42:11;;;;;;;1.60;1.47;;;12.20;1.00;;;;;;5076844;28;20228;-79
2023/06/05 00:44:37;;;;;;;1.47;1.30;;;12.10;1.00;;;;;;5095297;28;20179;-79
2023/06/05 00:47:04;;;;;;;1.53;1.20;;;11.90;1.00;;;;;;5095691;28;20207;-79
2023/06/05 00:49:30;;;;;;;3.53;1.33;;;12.00;1.00;;;;;;5095346;28;20200;-79
2023/06/05 00:51:57;;;;;;;2.53;1.30;;;12.10;1.00;;;;;;5095252;28;20179;-79
2023/06/05 00:54:23;;;;;;;2.50;1.40;;;12.10;1.00;;;;;;5077524;28;20221;-79
2023/06/05 00:56:48;;;;;;;2.03;1.20;;;12.00;1.00;;;;;;5088922;28;20192;-79
2023/06/05 00:59:14;;;;;;;1.43;1.20;;;11.90;1.00;;;;;;5076166;28;20173;-79
2023/06/05 01:01:42;;;;;;;2.47;1.50;;;12.00;1.00;;;;;;5097246;28;20175;-79
2023/06/05 01:04:08;;;;;;;1.70;1.47;;;11.90;1.00;;;;;;5086988;28;20207;-79
2023/06/05 01:06:34;;;;;;;1.80;1.50;;;11.80;1.00;;;;;;5056928;28;20169;-79
2023/06/05 01:09:01;;;;;;;1.67;1.30;;;11.80;91.80;;;;;;5056782;28;20204;-78
2023/06/05 01:11:59;;;;;;;1.70;1.20;;;11.70;1.40;;;;;;5056886;28;20260;-79
2023/06/05 01:14:30;;;;;;;1.50;1.40;;;11.70;24.70;;;;;;5060531;28;20197;-79
2023/06/05 01:17:00;;;;;;;1.93;1.30;;;11.80;1.00;;;;;;5056251;28;20192;-79
2023/06/05 01:19:28;;;;;;;2.40;1.20;;;11.80;7.50;;;;;;5073895;28;20195;-79
2023/06/05 01:21:55;;;;;;;2.07;1.40;;;11.60;1.00;;;;;;5074273;28;20167;-79
2023/06/05 01:24:22;;;;;;;1.60;1.37;;;11.60;1.00;;;;;;5073972;28;20165;-77
2023/06/05 01:27:15;;;;;;;1.40;1.23;;;11.60;1.00;;;;;;5074609;28;20192;-79
2023/06/05 01:29:56;;;;;;;2.53;1.23;;;11.60;99.90;;;;;;5056374;28;20182;-79
2023/06/05 01:32:46;;;;;;;2.50;1.50;;;11.50;1.00;;;;;;5056663;28;20161;-79
2023/06/05 01:35:17;;;;;;;1.93;1.40;;;11.30;46.10;;;;;;5074769;28;20173;-79
2023/06/05 01:37:48;;;;;;;1.57;1.37;;;11.30;99.90;;;;;;5056218;28;20201;-79
2023/06/05 01:40:16;;;;;;;2.63;1.50;;;11.20;99.90;;;;;;5073607;28;20242;-79
2023/06/05 01:42:43;;;;;;;1.40;1.27;;;10.90;99.90;;;;;;5114947;28;20214;-79
2023/06/05 01:45:10;;;;;;;2.37;1.40;;;10.90;1.00;;;;;;5115036;28;20172;-79
2023/06/05 01:47:37;;;;;;;1.50;1.40;;;10.90;99.90;;;;;;5096509;28;20221;-78
2023/06/05 01:50:05;;;;;;;1.30;1.20;;;11.00;99.90;;;;;;5114705;28;20171;-78
2023/06/05 01:52:31;;;;;;;1.67;1.10;;;11.10;99.90;;;;;;5114744;28;20168;-79
2023/06/05 01:55:01;;;;;;;1.90;1.50;;;11.00;99.90;;;;;;5114345;28;20168;-79
2023/06/05 01:57:33;;;;;;;1.30;1.20;;;10.70;99.90;;;;;;5096235;28;20195;-79
2023/06/05 02:00:01;;;;;;;1.67;1.20;;;10.70;99.90;;;;;;5114367;28;20167;-79
2023/06/05 02:02:28;;;;;;;1.60;1.43;;;10.80;1.00;;;;;;5096072;28;20174;-79
2023/06/05 02:04:54;;;;;;;1.40;1.30;;;10.70;1.00;;;;;;5111966;28;20203;-79
2023/06/05 02:07:21;;;;;;;3.20;1.40;;;10.80;99.90;;;;;;5076081;28;20207;-78
2023/06/05 02:09:47;;;;;;;1.30;1.20;;;10.80;1.00;;;;;;5075739;28;20172;-78
2023/06/05 02:12:15;;;;;;;2.40;1.40;;;10.80;1.00;;;;;;5094258;28;20263;-79
2023/06/05 02:14:44;;;;;;;2.07;1.17;;;10.90;1.00;;;;;;5075952;28;20191;-78
2023/06/05 02:17:13;;;;;;;1.97;1.30;;;10.90;99.90;;;;;;5075932;28;20207;-78
2023/06/05 02:19:39;;;;;;;1.37;1.27;;;10.90;99.90;;;;;;5075815;28;20165;-78
2023/06/05 02:22:05;;;;;;;1.77;1.33;;;10.90;99.90;;;;;;5075692;28;20164;-79
2023/06/05 02:24:30;;;;;;;2.30;1.40;;;10.90;1.00;;;;;;5093837;28;20171;-78
2023/06/05 02:26:56;;;;;;;2.87;1.40;;;10.80;99.90;;;;;;5075439;28;20188;-78
2023/06/05 02:29:23;;;;;;;2.30;1.47;;;10.80;99.90;;;;;;5094316;28;20168;-78
2023/06/05 02:31:49;;;;;;;1.67;1.30;;;10.90;99.90;;;;;;5075718;28;20165;-78
2023/06/05 02:34:16;;;;;;;2.27;1.30;;;10.90;99.90;;;;;;5075680;28;20199;-79
2023/06/05 02:36:45;;;;;;;1.37;1.27;;;10.70;99.90;;;;;;5094180;28;20192;-79
2023/06/05 02:39:11;;;;;;;2.27;1.40;;;10.60;99.90;;;;;;5075794;28;20200;-78
2023/06/05 02:41:37;;;;;;;1.53;1.03;;;10.50;1.00;;;;;;5093803;28;20179;-79
2023/06/05 02:44:03;;;;;;;2.03;1.60;;;10.50;1.00;;;;;;5075453;28;20169;-78
2023/06/05 02:46:29;;;;;;;2.27;1.40;;;10.60;1.00;;;;;;5093761;28;20228;-79
2023/06/05 02:48:55;;;;;;;2.13;1.33;;;10.40;25.70;;;;;;5075583;28;20215;-79
2023/06/05 02:51:20;;;;;;;2.80;1.40;;;10.50;1.00;;;;;;5075191;28;20643;-79
2023/06/05 02:53:46;;;;;;;1.90;1.30;;;10.30;1.00;;;;;;5075730;28;20255;-79
2023/06/05 02:56:12;;;;;;;2.17;1.40;;;10.20;1.00;;;;;;5075833;28;20168;-79
2023/06/05 02:58:39;;;;;;;1.50;1.20;;;10.30;1.00;;;;;;5093257;28;20196;-80
2023/06/05 03:01:08;;;;;;;1.60;1.20;;;10.20;1.00;;;;;;5093531;28;20647;-79
2023/06/05 03:03:34;;;;;;;1.63;1.40;;;10.20;27.60;;;;;;5075979;28;20178;-79
2023/06/05 03:06:04;;;;;;;1.40;1.27;;;10.20;99.90;;;;;;5097367;28;20169;-79
2023/06/05 03:08:34;;;;;;;1.73;1.30;;;10.30;99.90;;;;;;5097488;28;20223;-78
2023/06/05 03:11:01;;;;;;;1.87;1.50;;;10.10;1.00;;;;;;5079226;28;20168;-78
2023/06/05 03:13:26;;;;;;;1.70;1.30;;;10.20;62.10;;;;;;5097401;28;20172;-79
2023/06/05 03:15:56;;;;;;;1.43;1.30;;;10.10;3.50;;;;;;5079095;28;20168;-78
2023/06/05 03:18:25;;;;;;;2.00;1.33;;;10.20;1.00;;;;;;5097281;28;20196;-79
2023/06/05 03:20:54;;;;;;;1.40;1.10;;;10.00;18.20;;;;;;5079105;28;20238;-79
2023/06/05 03:23:25;;;;;;;1.87;1.40;;;10.20;99.90;;;;;;5058740;28;20283;-79
2023/06/05 03:25:51;;;;;;;3.43;1.50;;;10.00;99.90;;;;;;5077059;28;20636;-79
2023/06/05 03:28:18;;;;;;;2.90;1.30;;;9.90;81.50;;;;;;5076830;28;20193;-79
2023/06/05 03:30:44;;;;;;;1.40;1.30;;;9.80;1.00;;;;;;5058531;28;20183;-79
2023/06/05 03:33:10;;;;;;;1.80;1.30;;;9.90;99.90;;;;;;5111054;28;20175;-78
2023/06/05 03:35:35;;;;;;;2.40;1.43;;;9.90;1.00;;;;;;5097621;28;20190;-78
2023/06/05 03:38:02;;;;;;;1.47;1.30;;;9.90;99.90;;;;;;5086134;28;20568;-79
2023/06/05 03:40:28;;;;;;;1.60;1.47;;;9.80;99.90;;;;;;5096144;28;20186;-79
2023/06/05 03:42:54;;;;;;;1.90;1.40;;;9.90;99.90;;;;;;5095928;28;20264;-79
2023/06/05 03:45:19;;;;;;;1.93;1.40;;;10.00;99.90;;;;;;5096071;28;20200;-79
2023/06/05 03:47:48;;;;;;;2.90;1.30;;;9.90;99.90;;;;;;5096037;28;20309;-78
2023/06/05 03:50:15;;;;;;;1.50;1.40;;;9.80;99.90;;;;;;5095681;28;20199;-79
2023/06/05 03:52:40;;;;;;;2.70;1.70;;;10.00;99.90;;;;;;5097242;28;20179;-79
2023/06/05 03:55:10;;;;;;;1.40;1.30;;;9.90;15.40;;;;;;5095834;28;20172;-79
2023/06/05 03:57:37;;;;;;;2.43;1.60;;;9.80;1.00;;;;;;5096760;28;20256;-78
2023/06/05 04:00:09;;;;;;;2.17;1.50;;;9.90;99.90;;;;;;5095473;28;20175;-78
2023/06/05 04:02:36;;;;;;;2.07;1.23;;;9.60;99.90;;;;;;5095690;28;20191;-79
2023/06/05 04:05:03;;;;;;;1.63;1.37;;;9.50;1.00;;;;;;5096882;28;20252;-79
2023/06/05 04:07:29;;;;;;;1.63;1.40;;;9.60;1.00;;;;;;5095401;28;20199;-79
2023/06/05 04:09:55;;;;;;;2.50;1.50;;;9.60;1.00;;;;;;5096182;28;20180;-78
2023/06/05 04:12:20;;;;;;;1.90;1.40;;;9.70;1.00;;;;;;5096629;28;20543;-79
2023/06/05 04:14:46;;;;;;;2.50;1.50;;;9.80;1.00;;;;;;5095049;28;20637;-78
2023/06/05 04:17:13;;;;;;;1.93;1.37;;;9.80;1.00;;;;;;5094073;28;20284;-79
2023/06/05 04:19:39;;;;;;;2.53;1.23;;;9.70;1.00;;;;;;5095434;28;20171;-77
2023/06/05 04:22:05;;;;;;;1.50;1.40;;;9.70;97.40;;;;;;5095741;28;20345;-79
2023/06/05 04:24:31;;;;;;;1.93;1.60;;;9.70;99.90;;;;;;5094926;28;20638;-79
2023/06/05 04:27:00;;;;;;;1.97;1.40;;;9.80;99.90;;;;;;5095454;28;20212;-79
2023/06/05 04:29:26;;;;;;;1.50;1.37;;;9.80;99.90;;;;;;5095553;28;20179;-78
2023/06/05 04:31:52;;;;;;;1.80;1.50;;;9.80;99.90;;;;;;5096440;28;20179;-79
2023/06/05 04:34:20;;;;;;;2.00;1.57;;;9.90;99.90;;;;;;5095056;28;20172;-79
2023/06/05 04:36:49;;;;;;;3.43;1.57;;;9.80;1.00;;;;;;5096262;28;20171;-79
2023/06/05 04:39:15;;;;;;;2.00;1.33;;;9.80;99.90;;;;;;5096244;28;20223;-78
2023/06/05 04:41:46;;;;;;;3.57;1.67;;;10.00;99.90;;;;;;5095530;28;20179;-81
2023/06/05 04:44:16;;;;;;;1.57;1.40;;;10.00;99.90;;;;;;5093453;28;20650;-81
2023/06/05 04:46:45;;;;;;;1.60;1.50;;;10.10;22.20;;;;;;5094185;28;20155;-80
2023/06/05 04:49:12;;;;;;;1.60;1.30;;;10.10;99.90;;;;;;5094280;28;20175;-81
2023/06/05 04:51:38;;;;;;;3.10;1.57;;;10.10;99.90;;;;;;5093148;28;20177;-80
2023/06/05 04:54:05;;;;;;;2.03;1.50;;;10.20;1.00;;;;;;5093053;28;20201;-79
2023/06/05 04:56:32;;;;;;;2.17;1.60;;;10.20;1.00;;;;;;5093146;28;20184;-80
2023/06/05 04:58:59;;;;;;;2.43;1.60;;;10.30;99.90;;;;;;5093973;28;20670;-80
2023/06/05 05:01:25;;;;;;;1.53;1.40;;;10.30;99.90;;;;;;5094136;28;20255;-82
2023/06/05 05:03:51;;;;;;;1.60;1.27;;;10.40;99.90;;;;;;5093803;28;20172;-80
2023/06/05 05:06:17;;;;;;;2.23;1.50;;;10.50;99.90;;;;;;5094052;28;20255;-82
2023/06/05 05:08:48;;;;;;;4.03;1.70;;;10.60;99.90;;;;;;5092796;28;20199;-82
2023/06/05 05:11:14;;;;;;;2.33;1.97;;;10.70;1.00;;;;;;5093758;28;20592;-82
2023/06/05 05:13:41;;;;;;;2.20;1.80;;;10.90;99.90;;;;;;5092473;28;20206;-81
2023/06/05 05:16:07;;;;;;;1.87;1.67;;;11.00;1.00;;;;;;5093438;28;20228;-81
2023/06/05 05:18:37;;;;;;;3.37;1.70;;;11.10;1.00;;;;;;5093786;28;20208;-81
2023/06/05 05:21:04;;;;;;;1.80;1.70;;;11.10;99.90;;;;;;5078301;28;20179;-82
2023/06/05 05:23:31;;;;;;;3.20;1.90;;;11.30;1.00;;;;;;5075565;28;20182;-81
2023/06/05 05:25:56;;;;;;;2.80;1.90;;;11.50;1.00;;;;;;5093891;28;20175;-80
2023/06/05 05:28:22;;;;;;;2.03;1.77;;;11.50;99.90;;;;;;5093234;28;20271;-80
2023/06/05 05:30:48;;;;;;;3.30;1.90;;;11.50;99.90;;;;;;5093573;28;20172;-81
2023/06/05 05:33:14;;;;;;;2.53;1.80;;;11.50;99.90;;;;;;5075505;28;20242;-81
2023/06/05 05:35:40;;;;;;;1.97;1.77;;;11.60;99.90;;;;;;5075336;28;20226;-82
2023/06/05 05:38:06;;;;;;;3.63;2.13;;;11.70;99.90;;;;;;5093399;28;20231;-82
2023/06/05 05:40:31;;;;;;;4.13;2.10;;;11.80;99.90;;;;;;5093257;28;20169;-81
2023/06/05 05:42:57;;;;;;;3.03;1.90;;;11.90;99.90;;;;;;5075500;28;20176;-81
2023/06/05 05:45:23;;;;;;;3.40;1.80;;;11.90;99.90;;;;;;5075100;28;20196;-82
2023/06/05 05:47:48;;;;;;;2.13;1.43;;;11.90;99.90;;;;;;5075433;28;20208;-81
2023/06/05 05:50:14;;;;;;;4.00;1.70;;;13.20;1.00;;;;;;5093672;28;20230;-81
2023/06/05 05:52:39;;;;;;;4.47;1.80;;;13.90;1.00;;;;;;5093597;28;20172;-81
2023/06/05 05:55:06;;;;;;;2.50;1.63;;;14.20;82.80;;;;;;5094181;28;20188;-81
2023/06/05 05:57:32;;;;;;;3.27;1.57;;;14.90;1.00;;;;;;5093899;28;20287;-81
2023/06/05 05:59:57;;;;;;;4.40;1.70;;;15.80;1.00;;;;;;5093689;28;20712;-81
2023/06/05 06:02:23;;;;;;;5.17;1.60;;;16.20;99.90;;;;;;5076000;28;20179;-80
2023/06/05 06:04:49;;;;;;;3.07;1.73;;;16.00;99.90;;;;;;5075908;28;20168;-81
2023/06/05 06:07:15;;;;;;;1.87;1.53;;;16.40;1.00;;;;;;5075875;28;20188;-81
2023/06/05 06:09:40;;;;;;;2.97;1.80;;;16.80;1.00;;;;;;5092518;28;20183;-81
2023/06/05 06:12:07;;;;;;;3.03;2.07;;;16.50;1.00;;;;;;5055777;28;20161;-81
2023/06/05 06:14:33;;;;;;;2.77;1.80;;;15.80;99.90;;;;;;5056566;28;20175;-81
2023/06/05 06:17:00;;;;;;;1.80;1.50;;;15.40;1.00;;;;;;5056154;28;20189;-79
2023/06/05 06:19:27;;;;;;;2.03;1.70;;;15.50;1.00;;;;;;5055914;28;20250;-80
2023/06/05 06:21:53;;;;;;;2.77;1.90;;;16.50;99.90;;;;;;5073762;28;20181;-81
2023/06/05 06:24:22;;;;;;;3.43;1.80;;;17.40;1.00;;;;;;5074611;28;20165;-80
2023/06/05 06:26:49;;;;;;;3.10;1.90;;;17.00;99.90;;;;;;5074194;28;20189;-81
2023/06/05 06:29:18;;;;;;;1.97;1.67;;;16.80;1.00;;;;;;5074675;28;20173;-82
2023/06/05 06:31:44;;;;;;;1.60;1.50;;;16.60;99.90;;;;;;5073944;28;20553;-82
2023/06/05 06:34:10;;;;;;;3.67;1.63;;;16.30;99.90;;;;;;5056088;28;20648;-78
2023/06/05 06:36:43;;;;;;;3.27;1.60;;;16.10;1.00;;;;;;5073430;28;20659;-81
2023/06/05 06:39:10;;;;;;;3.20;1.70;;;16.00;99.90;;;;;;5057638;28;20200;-81
2023/06/05 06:41:36;;;;;;;1.87;1.60;;;15.80;99.90;;;;;;5059569;28;20215;-80
2023/06/05 06:44:02;;;;;;;3.07;1.70;;;15.60;1.00;;;;;;5077453;28;20230;-81
2023/06/05 06:46:28;;;;;;;1.90;1.70;;;15.50;99.90;;;;;;5058881;28;20589;-79
2023/06/05 06:48:54;;;;;;;4.23;1.60;;;15.40;1.00;;;;;;5158427;23;20223;-80
2023/06/05 06:51:21;;;;;;;3.27;1.60;;;15.40;99.90;;;;;;5126662;28;20182;-84
2023/06/05 06:53:47;;;;;;;1.53;1.43;;;15.40;99.90;;;;;;5128220;28;20589;-81
2023/06/05 06:56:15;;;;;;;2.90;1.67;;;15.40;99.90;;;;;;5128610;28;20176;-82
2023/06/05 06:58:41;;;;;;;2.30;1.83;;;15.50;1.00;;;;;;5118329;28;20207;-82
2023/06/05 07:01:06;;;;;;;2.07;1.80;;;15.50;1.00;;;;;;5129262;28;20175;-82
2023/06/05 07:03:32;;;;;;;3.03;2.00;;;15.60;99.90;;;;;;5128191;28;20668;-82
2023/06/05 07:05:57;;;;;;;2.37;1.80;;;15.70;1.00;;;;;;5123748;28;20322;-82
2023/06/05 07:08:23;;;;;;;4.37;1.73;;;15.80;1.00;;;;;;5108965;28;20191;-82
2023/06/05 07:10:49;;;;;;;3.07;2.13;;;15.90;1.00;;;;;;5109791;28;20170;-82
2023/06/05 07:13:15;;;;;;;2.00;1.60;;;16.00;99.90;;;;;;5111861;28;20163;-82
2023/06/05 07:15:40;;;;;;;2.00;1.70;;;16.20;99.90;;;;;;5111309;28;20262;-83
2023/06/05 07:18:06;;;;;;;3.00;1.70;;;16.30;99.90;;;;;;5129987;28;20249;-80
2023/06/05 07:20:31;;;;;;;3.43;1.93;;;16.40;99.90;;;;;;5110410;28;20187;-81
2023/06/05 07:22:57;;;;;;;2.00;1.80;;;16.50;99.90;;;;;;5109622;28;20168;-84
2023/06/05 07:25:24;;;;;;;3.13;1.90;;;16.60;99.90;;;;;;5111623;28;20258;-83
2023/06/05 07:27:50;;;;;;;4.13;2.00;;;16.70;99.90;;;;;;5131221;28;20196;-83
2023/06/05 07:30:16;;;;;;;2.50;1.80;;;16.80;99.90;;;;;;5132300;28;20179;-82
2023/06/05 07:32:42;;;;;;;2.73;1.70;;;17.00;99.90;;;;;;5132208;28;20182;-82
2023/06/05 07:35:08;;;;;;;2.47;1.60;;;17.10;99.90;;;;;;5113119;28;20239;-83
2023/06/05 07:37:35;;;;;;;3.90;1.83;;;17.30;99.90;;;;;;5113070;28;20208;-82
2023/06/05 07:40:00;;;;;;;2.57;1.70;;;17.50;99.90;;;;;;5133563;28;20186;-82
2023/06/05 07:42:26;;;;;;;3.60;1.80;;;17.60;99.90;;;;;;5116194;28;20179;-82
2023/06/05 07:44:52;;;;;;;2.53;1.80;;;17.70;73.80;;;;;;5134275;28;20171;-82
2023/06/05 07:47:17;;;;;;;2.00;1.70;;;17.90;90.70;;;;;;5134424;28;20194;-83
2023/06/05 07:49:43;;;;;;;2.47;1.80;;;18.00;99.90;;;;;;5116236;28;20167;-83
2023/06/05 07:52:09;;;;;;;2.43;2.20;;;18.20;1.00;;;;;;5116701;28;20164;-84
2023/06/05 07:54:34;;;;;;;3.67;2.03;;;18.40;1.00;;;;;;5117285;28;20171;-82
2023/06/05 07:57:00;;;;;;;1.70;1.60;;;18.50;50.00;;;;;;5134752;28;20172;-84
2023/06/05 07:59:27;;;;;;;2.40;1.70;;;18.70;1.00;;;;;;5117549;28;20219;-83
2023/06/05 08:01:55;;;;;;;2.70;1.60;;;19.00;1.00;;;;;;5135433;28;20152;-83
2023/06/05 08:04:24;;;;;;;4.50;1.67;;;19.20;1.00;;;;;;5111564;28;20235;-83
2023/06/05 08:06:51;;;;;;;1.73;1.50;;;19.40;1.00;;;;;;5111912;28;20231;-82
2023/06/05 08:09:17;;;;;;;3.00;1.73;;;19.60;1.00;;;;;;5112117;28;20188;-83
2023/06/05 08:11:42;;;;;;;2.97;1.73;;;19.80;1.00;;;;;;5113094;28;20176;-84
2023/06/05 08:14:08;;;;;;;2.10;1.63;;;20.00;1.00;;;;;;5132230;28;20191;-82
2023/06/05 08:16:35;;;;;;;2.30;1.67;;;20.20;1.00;;;;;;5132028;28;20271;-83
2023/06/05 08:19:01;;;;;;;2.43;1.70;;;20.40;1.00;;;;;;5132617;28;20207;-82
2023/06/05 08:21:27;;;;;;;2.67;1.70;;;20.60;1.00;;;;;;5114040;28;20244;-81
2023/06/05 08:23:52;;;;;;;2.70;1.80;;;20.80;99.90;;;;;;5114318;28;20172;-84
2023/06/05 08:26:21;;;;;;;2.70;1.60;;;21.00;99.90;;;;;;5114571;28;20172;-82
2023/06/05 08:28:49;;;;;;;2.13;1.50;;;21.10;99.90;;;;;;5115201;28;20207;-82
2023/06/05 08:31:15;;;;;;;3.55;1.70;;;21.20;99.90;;;;;;5133915;28;20171;-82
2023/06/05 08:33:42;;;;;;;2.83;1.77;;;21.20;99.90;;;;;;5107859;28;20212;-83
2023/06/05 08:36:08;;;;;;;1.75;1.55;;;21.30;99.90;;;;;;5116839;28;20180;-82
2023/06/05 08:38:35;;;;;;;2.30;1.85;;;21.50;99.90;;;;;;5124974;28;20218;-84
2023/06/05 08:41:07;;;;;;;3.00;1.63;;;21.60;99.90;;;;;;5121101;28;20163;-83
2023/06/05 08:43:39;;;;;;;4.05;1.73;;;21.80;99.90;;;;;;5117875;28;20183;-83
2023/06/05 08:46:06;;;;;;;2.22;1.52;;;21.90;99.90;;;;;;5135725;28;20215;-83
2023/06/05 08:48:34;;;;;;;2.03;1.80;;;22.00;99.90;;;;;;5119255;28;20308;-82
2023/06/05 08:51:00;;;;;;;2.03;1.65;;;22.20;99.90;;;;;;5110869;28;20180;-82
2023/06/05 08:53:32;;;;;;;3.17;1.42;;;22.30;99.90;;;;;;5112399;28;20172;-82
2023/06/05 08:55:58;;;;;;;2.00;1.58;;;22.50;99.90;;;;;;5108980;28;20240;-82
2023/06/05 08:58:24;;;;;;;2.53;1.80;;;22.60;99.90;;;;;;5110423;28;20199;-82
2023/06/05 09:00:50;;;;;;;1.90;1.50;;;22.80;99.90;;;;;;5123096;28;20172;-82
2023/06/05 09:03:18;;;;;;;2.47;1.60;;;22.80;99.90;;;;;;5104322;28;20164;-81
2023/06/05 09:05:43;;;;;;;2.85;1.73;;;22.90;99.90;;;;;;5106549;28;20187;-82
2023/06/05 09:08:09;;;;;;;1.83;1.58;;;23.10;99.90;;;;;;5105630;28;20192;-82
2023/06/05 09:10:35;;;;;;;2.35;1.80;;;23.20;99.90;;;;;;5103943;28;20198;-84
2023/06/05 09:13:03;;;;;;;2.45;1.55;;;23.30;99.90;;;;;;5119743;28;20188;-82
2023/06/05 09:15:30;;;;;;;2.47;1.67;;;23.20;99.90;;;;;;5113968;28;20199;-82
2023/06/05 09:18:02;;;;;;;2.88;1.60;;;23.40;99.90;;;;;;5124946;28;20207;-82
2023/06/05 09:20:29;;;;;;;2.55;1.60;;;23.50;99.90;;;;;;5118015;28;20190;-82
2023/06/05 09:22:55;;;;;;;2.10;1.67;;;23.50;99.90;;;;;;5123470;28;20220;-83
2023/06/05 09:25:20;;;;;;;1.90;1.48;;;23.70;99.90;;;;;;5115972;28;20171;-82
2023/06/05 09:28:06;;;;;;;3.13;1.58;;;23.80;99.90;;;;;;5117673;28;20212;-81
2023/06/05 09:30:32;;;;;;;4.18;1.67;;;24.10;99.90;;;;;;5123329;28;20179;-82
2023/06/05 09:33:08;;;;;;;3.47;1.80;;;24.20;99.90;;;;;;5112229;28;20182;-80
2023/06/05 09:35:38;;;;;;;2.10;1.70;;;24.30;99.90;;;;;;5121241;28;20238;-79
2023/06/05 09:38:24;;;;;;;1.90;1.60;;;24.30;99.90;;;;;;5122590;28;20208;-81
2023/06/05 09:40:49;;;;;;;2.33;1.85;;;24.40;99.90;;;;;;5098889;28;20266;-81
2023/06/05 09:43:24;;;;;;;1.95;1.40;;;24.40;99.90;;;;;;5099060;28;20174;-81
2023/06/05 09:45:50;;;;;;;3.88;1.70;;;24.60;99.90;;;;;;5121134;28;20167;-81
2023/06/05 09:48:16;;;;;;;2.05;1.63;;;24.50;99.90;;;;;;5085050;28;20212;-82
2023/06/05 09:50:42;;;;;;;1.38;1.27;;;24.60;99.90;;;;;;5086529;28;20176;-81
2023/06/05 09:53:09;;;;;;;2.40;1.80;;;24.70;99.90;;;;;;5089600;28;20187;-81
2023/06/05 09:55:36;;;;;;;2.17;1.50;;;24.90;99.90;;;;;;5105367;28;20194;-81
2023/06/05 09:58:10;;;;;;;2.85;1.80;;;24.90;99.90;;;;;;5106985;28;20204;-83
2023/06/05 10:00:38;;;;;;;2.17;1.60;;;24.80;99.90;;;;;;5114764;28;20254;-82
2023/06/05 10:03:13;;;;;;;2.85;1.77;;;25.00;99.90;;;;;;5099425;28;20168;-81
2023/06/05 10:05:42;;;;;;;3.25;1.80;;;25.30;99.90;;;;;;5112385;28;20163;-81
2023/06/05 10:08:08;;;;;;;2.22;1.60;;;25.30;99.90;;;;;;5105653;28;20309;-81
2023/06/05 10:10:36;;;;;;;2.33;1.60;;;25.30;99.90;;;;;;5090747;28;20172;-82
2023/06/05 10:13:02;;;;;;;2.55;1.70;;;25.20;99.90;;;;;;5085780;28;20181;-81
2023/06/05 10:15:30;;;;;;;2.38;1.85;;;25.20;99.90;;;;;;5103555;28;20267;-81
2023/06/05 10:17:56;;;;;;;2.28;1.52;;;25.30;99.90;;;;;;5085986;28;20200;-81
2023/06/05 10:20:22;;;;;;;1.73;1.50;;;25.40;99.90;;;;;;5086525;28;20202;-81
2023/06/05 10:22:50;;;;;;;2.33;1.70;;;25.60;99.90;;;;;;5099545;28;20646;-81
2023/06/05 10:25:19;;;;;;;2.53;1.70;;;25.50;89.10;;;;;;5106565;28;20172;-81
2023/06/05 10:28:10;;;;;;;2.42;1.77;;;25.80;89.50;;;;;;5109600;28;20250;-81
2023/06/05 10:30:47;;;;;;;1.77;1.67;;;25.80;90.90;;;;;;5108946;28;20626;-81
2023/06/05 10:33:37;;;;;;;2.80;1.80;;;26.10;86.70;;;;;;5105907;28;20232;-82
2023/06/05 10:36:16;;;;;;;1.80;1.52;;;26.20;75.30;;;;;;5127801;28;20177;-83
2023/06/05 10:38:44;;;;;;;2.05;1.75;;;26.10;78.00;;;;;;5106493;28;20210;-81
2023/06/05 10:41:10;;;;;;;2.28;1.77;;;26.00;66.70;;;;;;5125103;28;20171;-79
2023/06/05 10:43:49;;;;;;;1.90;1.80;;;26.20;64.10;;;;;;5106540;28;20167;-79
2023/06/05 10:46:27;;;;;;;1.90;1.48;;;26.50;64.80;;;;;;5123941;28;20216;-79
2023/06/05 10:49:19;;;;;;;2.47;2.00;;;26.30;61.30;;;;;;5126338;28;20238;-81
2023/06/05 10:51:53;;;;;;;2.60;1.70;;;26.30;52.70;;;;;;5107970;28;20172;-81
2023/06/05 10:54:21;;;;;;;2.22;1.77;;;26.20;51.90;;;;;;5108537;28;20210;-79
2023/06/05 10:57:06;;;;;;;2.33;2.00;;;26.10;49.40;;;;;;5109700;28;20176;-80
2023/06/05 10:59:34;;;;;;;2.83;1.67;;;26.50;51.20;;;;;;5126932;28;20199;-79
2023/06/05 11:04:47;;;;;;;2.83;1.63;;;26.70;48.90;;;;;;5118623;28;20164;-81
2023/06/05 11:07:24;;;;;;;2.33;1.70;;;26.60;45.60;;;;;;5132538;28;20187;-82
2023/06/05 11:10:22;;;;;;;2.13;1.80;;;26.30;39.40;;;;;;5110683;28;20195;-82
2023/06/05 11:12:51;;;;;;;1.90;1.55;;;26.50;41.50;;;;;;5076653;28;20182;-81
2023/06/05 11:15:22;;;;;;;3.10;1.67;;;26.60;40.10;;;;;;5107259;28;20166;-81
2023/06/05 11:17:48;;;;;;;2.08;1.80;;;26.70;36.40;;;;;;5105910;28;20253;-81
2023/06/05 11:20:23;;;;;;;2.75;1.75;;;26.60;35.40;;;;;;5114711;28;20180;-81
2023/06/05 11:23:10;;;;;;;1.73;1.60;;;26.80;31.90;;;;;;5106935;28;20542;-82
2023/06/05 11:25:36;;;;;;;1.92;1.73;;;27.30;33.00;;;;;;5108250;28;20171;-82
2023/06/05 11:28:07;;;;;;;2.90;1.45;;;27.40;35.40;;;;;;5122739;28;20195;-82
2023/06/05 11:30:44;;;;;;;3.13;1.65;;;27.20;52.60;;;;;;5104632;28;20168;-81
2023/06/05 11:33:19;;;;;;;2.40;1.85;;;27.30;27.20;;;;;;5106910;28;20194;-81
2023/06/05 11:35:46;;;;;;;1.75;1.60;;;27.40;27.20;;;;;;5092670;28;20179;-81
2023/06/05 11:38:14;;;;;;;1.98;1.70;;;27.70;29.60;;;;;;5090847;28;20204;-81
2023/06/05 11:40:41;;;;;;;3.30;1.55;;;27.70;27.80;;;;;;5109855;28;20180;-82
2023/06/05 11:43:09;;;;;;;2.30;1.75;;;27.80;26.40;;;;;;5091527;28;20180;-81
2023/06/05 11:45:36;;;;;;;2.15;1.67;;;28.20;29.00;;;;;;5091272;28;20195;-82
2023/06/05 11:48:08;;;;;;;2.35;1.90;;;28.00;26.00;;;;;;5111941;28;20598;-83
2023/06/05 11:50:35;;;;;;;2.95;1.67;;;27.90;27.10;;;;;;5120483;28;20175;-82
2023/06/05 11:53:07;;;;;;;3.05;1.92;;;27.60;26.40;;;;;;5121135;28;20168;-82
2023/06/05 11:58:23;;;;;;;1.90;1.75;;;27.90;29.60;;;;;;5131566;28;20217;-83
2023/06/05 12:00:50;;;;;;;1.98;1.73;;;28.00;28.00;;;;;;5107457;28;20208;-81
2023/06/05 12:03:23;;;;;;;2.97;1.98;;;27.90;27.40;;;;;;5120765;28;20175;-81
2023/06/05 12:05:49;;;;;;;2.67;2.00;;;28.20;27.80;;;;;;5092403;28;20266;-83
2023/06/05 12:08:25;;;;;;;2.80;1.70;;;28.20;26.80;;;;;;5112129;28;20210;-83
2023/06/05 12:10:51;;;;;;;2.20;1.80;;;27.90;25.00;;;;;;5093605;28;20182;-83
2023/06/05 12:13:17;;;;;;;2.33;1.70;;;27.70;23.70;;;;;;5109681;28;20642;-82
2023/06/05 12:15:42;;;;;;;2.70;1.80;;;27.80;26.80;;;;;;5122138;28;20180;-82
2023/06/05 12:18:08;;;;;;;1.73;1.63;;;27.80;26.20;;;;;;5130596;28;20215;-82
2023/06/05 12:20:40;;;;;;;3.00;1.90;;;27.70;30.50;;;;;;5128289;28;20697;-82
2023/06/05 12:23:06;;;;;;;2.65;1.90;;;27.80;27.80;;;;;;5115304;28;20172;-82
2023/06/05 12:25:32;;;;;;;2.72;2.22;;;27.70;24.90;;;;;;5104521;28;20164;-82
2023/06/05 12:27:57;;;;;;;2.60;1.90;;;27.90;24.70;;;;;;5083797;28;20236;-82
2023/06/05 12:30:23;;;;;;;2.00;1.80;;;28.20;25.60;;;;;;5083875;28;20169;-83
2023/06/05 12:32:51;;;;;;;2.65;2.13;;;28.40;27.40;;;;;;5083503;28;20173;-82
2023/06/05 12:35:23;;;;;;;2.75;1.90;;;28.60;25.30;;;;;;5102246;28;20172;-82
2023/06/05 12:37:50;;;;;;;3.22;1.92;;;28.50;21.20;;;;;;5083076;28;20192;-81
2023/06/05 12:40:20;;;;;;;2.28;1.92;;;28.60;21.40;;;;;;5082999;28;20172;-84
2023/06/05 12:42:47;;;;;;;2.00;1.80;;;29.00;25.60;;;;;;5083744;28;20191;-83
2023/06/05 12:45:13;;;;;;;2.10;1.90;;;28.60;19.60;;;;;;5103633;28;20267;-82
2023/06/05 12:47:40;;;;;;;2.47;1.80;;;28.80;21.30;;;;;;5083188;28;20239;-83
2023/06/05 12:50:13;;;;;;;2.40;1.98;;;29.10;20.00;;;;;;5081824;28;20221;-82
2023/06/05 12:52:42;;;;;;;2.20;1.88;;;29.40;21.80;;;;;;5082041;28;20173;-82
2023/06/05 12:55:08;;;;;;;2.05;1.83;;;29.70;18.30;;;;;;5102632;28;20165;-81
2023/06/05 12:57:34;;;;;;;2.03;1.83;;;28.90;15.60;;;;;;5103370;28;20187;-82
2023/06/05 13:00:04;;;;;;;2.30;1.77;;;29.20;16.50;;;;;;5083073;28;20172;-81